sensor_id;sensor_type;location;lat;lon;timestamp;pressure;altitude;pressure_sealevel;temperature;humidity
69570;BME280;56781;42.292;23.146;2022-08-03T00:02:13;95525.56;;;15.50;87.04
69570;BME280;56781;42.292;23.146;2022-08-03T00:04:41;95568.41;;;15.73;87.19
69570;BME280;56781;42.292;23.146;2022-08-03T00:07:08;95566.06;;;15.84;86.87
69570;BME280;56781;42.292;23.146;2022-08-03T00:09:35;95558.97;;;16.12;84.58
69570;BME280;56781;42.292;23.146;2022-08-03T00:12:02;95553.03;;;15.86;84.64
69570;BME280;56781;42.292;23.146;2022-08-03T00:14:29;95545.34;;;15.55;86.31
69570;BME280;56781;42.292;23.146;2022-08-03T00:16:56;95557.31;;;15.66;86.57
69570;BME280;56781;42.292;23.146;2022-08-03T00:19:23;95537.00;;;15.47;86.89
69570;BME280;56781;42.292;23.146;2022-08-03T00:21:50;95530.16;;;15.50;86.99
69570;BME280;56781;42.292;23.146;2022-08-03T00:24:17;95535.69;;;15.33;87.80
69570;BME280;56781;42.292;23.146;2022-08-03T00:26:44;95563.44;;;15.33;88.68
69570;BME280;56781;42.292;23.146;2022-08-03T00:29:11;95541.47;;;15.43;88.24
69570;BME280;56781;42.292;23.146;2022-08-03T00:31:38;95540.09;;;15.37;87.10
69570;BME280;56781;42.292;23.146;2022-08-03T00:34:25;95540.84;;;15.25;88.71
69570;BME280;56781;42.292;23.146;2022-08-03T00:37:11;95560.28;;;15.52;87.70
69570;BME280;56781;42.292;23.146;2022-08-03T00:39:38;95571.88;;;15.52;86.14
69570;BME280;56781;42.292;23.146;2022-08-03T00:42:06;95558.59;;;15.47;86.86
69570;BME280;56781;42.292;23.146;2022-08-03T00:44:43;95557.38;;;15.36;87.26
69570;BME280;56781;42.292;23.146;2022-08-03T00:47:11;95547.28;;;15.12;88.63
69570;BME280;56781;42.292;23.146;2022-08-03T00:49:38;95513.31;;;14.90;88.88
69570;BME280;56781;42.292;23.146;2022-08-03T00:52:10;95502.34;;;14.66;89.98
69570;BME280;56781;42.292;23.146;2022-08-03T00:54:37;95540.84;;;14.75;90.32
69570;BME280;56781;42.292;23.146;2022-08-03T00:57:05;95534.69;;;14.66;90.10
69570;BME280;56781;42.292;23.146;2022-08-03T00:59:32;95565.31;;;14.61;90.97
69570;BME280;56781;42.292;23.146;2022-08-03T01:02:00;95568.66;;;14.49;92.08
69570;BME280;56781;42.292;23.146;2022-08-03T01:04:27;95568.50;;;14.54;91.05
69570;BME280;56781;42.292;23.146;2022-08-03T01:07:02;95540.06;;;14.36;90.85
69570;BME280;56781;42.292;23.146;2022-08-03T01:12:40;95556.63;;;14.55;90.56
69570;BME280;56781;42.292;23.146;2022-08-03T01:16:11;95546.41;;;14.31;92.11
69570;BME280;56781;42.292;23.146;2022-08-03T01:18:16;95531.50;;;14.34;91.72
69570;BME280;56781;42.292;23.146;2022-08-03T01:20:46;95562.41;;;14.75;91.16
69570;BME280;56781;42.292;23.146;2022-08-03T01:26:08;95570.66;;;14.70;90.29
69570;BME280;56781;42.292;23.146;2022-08-03T01:29:00;95568.91;;;14.74;89.92
69570;BME280;56781;42.292;23.146;2022-08-03T01:31:54;95572.28;;;14.62;90.88
69570;BME280;56781;42.292;23.146;2022-08-03T01:34:47;95557.72;;;14.63;91.18
69570;BME280;56781;42.292;23.146;2022-08-03T01:37:22;95566.81;;;14.79;90.77
69570;BME280;56781;42.292;23.146;2022-08-03T01:39:51;95544.72;;;14.86;89.79
69570;BME280;56781;42.292;23.146;2022-08-03T01:42:23;95526.84;;;14.43;88.36
69570;BME280;56781;42.292;23.146;2022-08-03T01:44:52;95565.34;;;14.44;90.11
69570;BME280;56781;42.292;23.146;2022-08-03T01:47:21;95546.25;;;14.28;89.95
69570;BME280;56781;42.292;23.146;2022-08-03T01:49:50;95538.25;;;14.02;91.22
69570;BME280;56781;42.292;23.146;2022-08-03T01:52:20;95551.00;;;14.31;90.44
69570;BME280;56781;42.292;23.146;2022-08-03T01:54:50;95544.19;;;14.25;91.11
69570;BME280;56781;42.292;23.146;2022-08-03T01:57:18;95574.03;;;14.49;91.83
69570;BME280;56781;42.292;23.146;2022-08-03T01:59:48;95574.38;;;14.56;90.43
69570;BME280;56781;42.292;23.146;2022-08-03T02:02:17;95544.19;;;14.25;90.41
69570;BME280;56781;42.292;23.146;2022-08-03T02:05:00;95579.34;;;14.28;92.17
69570;BME280;56781;42.292;23.146;2022-08-03T02:07:29;95558.16;;;14.18;91.83
69570;BME280;56781;42.292;23.146;2022-08-03T02:09:58;95569.25;;;14.25;92.34
69570;BME280;56781;42.292;23.146;2022-08-03T02:12:27;95535.66;;;14.14;90.93
69570;BME280;56781;42.292;23.146;2022-08-03T02:14:56;95551.44;;;14.33;90.60
69570;BME280;56781;42.292;23.146;2022-08-03T02:17:26;95534.44;;;14.03;91.25
69570;BME280;56781;42.292;23.146;2022-08-03T02:20:07;95538.59;;;13.91;90.29
69570;BME280;56781;42.292;23.146;2022-08-03T02:22:39;95569.78;;;13.92;92.10
69570;BME280;56781;42.292;23.146;2022-08-03T02:25:11;95561.09;;;13.69;93.54
69570;BME280;56781;42.292;23.146;2022-08-03T02:27:49;95573.91;;;13.90;93.71
69570;BME280;56781;42.292;23.146;2022-08-03T02:30:18;95548.44;;;13.87;93.34
69570;BME280;56781;42.292;23.146;2022-08-03T02:32:51;95583.81;;;14.15;91.14
69570;BME280;56781;42.292;23.146;2022-08-03T02:35:21;95570.56;;;14.02;91.88
69570;BME280;56781;42.292;23.146;2022-08-03T02:37:52;95555.44;;;13.71;92.13
69570;BME280;56781;42.292;23.146;2022-08-03T02:40:22;95529.00;;;13.64;91.78
69570;BME280;56781;42.292;23.146;2022-08-03T02:42:52;95560.47;;;13.90;91.32
69570;BME280;56781;42.292;23.146;2022-08-03T02:45:23;95542.13;;;13.74;91.30
69570;BME280;56781;42.292;23.146;2022-08-03T02:47:56;95572.81;;;13.65;92.80
69570;BME280;56781;42.292;23.146;2022-08-03T02:50:24;95576.72;;;14.02;91.14
69570;BME280;56781;42.292;23.146;2022-08-03T02:52:54;95525.31;;;13.78;88.92
69570;BME280;56781;42.292;23.146;2022-08-03T02:55:22;95542.28;;;13.69;89.03
69570;BME280;56781;42.292;23.146;2022-08-03T02:57:51;95542.31;;;13.52;91.58
69570;BME280;56781;42.292;23.146;2022-08-03T03:00:20;95553.06;;;13.52;92.48
69570;BME280;56781;42.292;23.146;2022-08-03T03:02:58;95558.75;;;13.59;92.07
69570;BME280;56781;42.292;23.146;2022-08-03T03:05:27;95576.47;;;13.60;91.85
69570;BME280;56781;42.292;23.146;2022-08-03T03:08:17;95537.41;;;13.28;90.64
69570;BME280;56781;42.292;23.146;2022-08-03T03:10:53;95551.59;;;13.11;93.51
69570;BME280;56781;42.292;23.146;2022-08-03T03:13:21;95554.09;;;12.99;95.09
69570;BME280;56781;42.292;23.146;2022-08-03T03:15:49;95550.00;;;13.10;95.21
69570;BME280;56781;42.292;23.146;2022-08-03T03:18:20;95557.47;;;13.22;93.71
69570;BME280;56781;42.292;23.146;2022-08-03T03:20:50;95587.69;;;13.45;93.40
69570;BME280;56781;42.292;23.146;2022-08-03T03:23:20;95564.13;;;13.42;91.13
69570;BME280;56781;42.292;23.146;2022-08-03T03:25:48;95579.47;;;13.67;89.95
69570;BME280;56781;42.292;23.146;2022-08-03T03:28:16;95560.47;;;13.38;89.94
69570;BME280;56781;42.292;23.146;2022-08-03T03:30:43;95571.56;;;13.27;91.04
69570;BME280;56781;42.292;23.146;2022-08-03T03:33:18;95598.25;;;13.15;94.34
69570;BME280;56781;42.292;23.146;2022-08-03T03:35:45;95601.56;;;13.12;94.46
69570;BME280;56781;42.292;23.146;2022-08-03T03:38:13;95566.63;;;13.12;92.44
69570;BME280;56781;42.292;23.146;2022-08-03T03:40:40;95606.69;;;13.40;91.90
69570;BME280;56781;42.292;23.146;2022-08-03T03:43:11;95589.06;;;13.16;93.09
69570;BME280;56781;42.292;23.146;2022-08-03T03:45:42;95565.50;;;13.04;94.38
69570;BME280;56781;42.292;23.146;2022-08-03T03:48:09;95574.03;;;13.15;93.85
69570;BME280;56781;42.292;23.146;2022-08-03T03:50:37;95606.81;;;13.35;94.19
69570;BME280;56781;42.292;23.146;2022-08-03T03:53:11;95582.59;;;13.17;95.05
69570;BME280;56781;42.292;23.146;2022-08-03T03:55:41;95618.56;;;13.39;95.03
69570;BME280;56781;42.292;23.146;2022-08-03T03:58:29;95617.63;;;13.52;95.51
69570;BME280;56781;42.292;23.146;2022-08-03T04:00:57;95617.28;;;13.62;96.21
69570;BME280;56781;42.292;23.146;2022-08-03T04:03:24;95615.69;;;13.70;96.36
69570;BME280;56781;42.292;23.146;2022-08-03T04:05:51;95571.25;;;13.46;95.84
69570;BME280;56781;42.292;23.146;2022-08-03T04:08:36;95624.88;;;14.04;94.62
69570;BME280;56781;42.292;23.146;2022-08-03T04:11:26;95624.72;;;14.09;95.40
69570;BME280;56781;42.292;23.146;2022-08-03T04:14:17;95598.91;;;13.99;93.92
69570;BME280;56781;42.292;23.146;2022-08-03T04:16:49;95629.53;;;14.33;92.72
69570;BME280;56781;42.292;23.146;2022-08-03T04:19:25;95588.97;;;14.38;93.12
69570;BME280;56781;42.292;23.146;2022-08-03T04:21:56;95612.09;;;14.56;93.08
69570;BME280;56781;42.292;23.146;2022-08-03T04:24:29;95582.16;;;14.40;92.45
69570;BME280;56781;42.292;23.146;2022-08-03T04:26:59;95606.34;;;14.67;90.93
69570;BME280;56781;42.292;23.146;2022-08-03T04:29:30;95615.22;;;14.97;89.82
69570;BME280;56781;42.292;23.146;2022-08-03T04:32:00;95563.66;;;14.77;90.19
69570;BME280;56781;42.292;23.146;2022-08-03T04:34:28;95570.56;;;14.87;89.71
69570;BME280;56781;42.292;23.146;2022-08-03T04:37:00;95581.44;;;14.99;88.75
69570;BME280;56781;42.292;23.146;2022-08-03T04:52:15;95571.03;;;16.15;85.46
69570;BME280;56781;42.292;23.146;2022-08-03T04:54:44;95591.75;;;16.35;86.31
69570;BME280;56781;42.292;23.146;2022-08-03T04:57:16;95621.81;;;16.79;85.98
69570;BME280;56781;42.292;23.146;2022-08-03T04:59:50;95576.59;;;16.55;84.93
69570;BME280;56781;42.292;23.146;2022-08-03T05:02:29;95587.97;;;16.73;85.18
69570;BME280;56781;42.292;23.146;2022-08-03T05:04:57;95611.47;;;16.94;84.61
69570;BME280;56781;42.292;23.146;2022-08-03T05:07:24;95564.25;;;16.91;83.86
69570;BME280;56781;42.292;23.146;2022-08-03T05:10:01;95582.59;;;17.10;83.56
69570;BME280;56781;42.292;23.146;2022-08-03T05:12:29;95589.91;;;17.22;82.13
69570;BME280;56781;42.292;23.146;2022-08-03T05:15:00;95609.13;;;17.45;81.75
69570;BME280;56781;42.292;23.146;2022-08-03T05:17:27;95633.19;;;17.75;80.87
69570;BME280;56781;42.292;23.146;2022-08-03T05:19:55;95615.97;;;17.67;81.64
69570;BME280;56781;42.292;23.146;2022-08-03T05:22:22;95596.28;;;17.94;79.01
69570;BME280;56781;42.292;23.146;2022-08-03T05:24:49;95596.53;;;17.89;75.93
69570;BME280;56781;42.292;23.146;2022-08-03T05:27:16;95618.09;;;18.14;76.65
69570;BME280;56781;42.292;23.146;2022-08-03T05:29:47;95609.31;;;18.33;75.70
69570;BME280;56781;42.292;23.146;2022-08-03T05:32:15;95591.31;;;18.41;76.90
69570;BME280;56781;42.292;23.146;2022-08-03T05:34:43;95642.19;;;18.91;76.43
69570;BME280;56781;42.292;23.146;2022-08-03T05:37:10;95639.72;;;19.02;75.45
69570;BME280;56781;42.292;23.146;2022-08-03T05:39:37;95614.06;;;18.99;75.54
69570;BME280;56781;42.292;23.146;2022-08-03T05:42:14;95619.28;;;19.24;74.80
69570;BME280;56781;42.292;23.146;2022-08-03T05:44:42;95646.22;;;19.48;74.58
69570;BME280;56781;42.292;23.146;2022-08-03T05:47:09;95624.50;;;19.48;72.61
69570;BME280;56781;42.292;23.146;2022-08-03T05:49:36;95611.16;;;19.59;73.00
69570;BME280;56781;42.292;23.146;2022-08-03T05:52:03;95652.50;;;20.04;70.34
69570;BME280;56781;42.292;23.146;2022-08-03T05:54:46;95633.50;;;20.27;68.50
69570;BME280;56781;42.292;23.146;2022-08-03T05:57:25;95636.31;;;20.30;69.77
69570;BME280;56781;42.292;23.146;2022-08-03T05:59:52;95643.66;;;20.49;70.34
69570;BME280;56781;42.292;23.146;2022-08-03T06:02:25;95615.22;;;20.66;69.37
69570;BME280;56781;42.292;23.146;2022-08-03T06:04:52;95616.84;;;20.94;67.91
69570;BME280;56781;42.292;23.146;2022-08-03T06:07:19;95643.06;;;21.29;66.89
69570;BME280;56781;42.292;23.146;2022-08-03T06:09:46;95602.22;;;21.29;65.37
69570;BME280;56781;42.292;23.146;2022-08-03T06:12:33;95645.88;;;21.89;63.36
69570;BME280;56781;42.292;23.146;2022-08-03T06:15:03;95639.97;;;22.13;63.65
69570;BME280;56781;42.292;23.146;2022-08-03T06:17:30;95628.09;;;21.99;61.17
69570;BME280;56781;42.292;23.146;2022-08-03T06:20:04;95622.91;;;22.20;63.36
69570;BME280;56781;42.292;23.146;2022-08-03T06:22:31;95619.13;;;22.28;61.69
69570;BME280;56781;42.292;23.146;2022-08-03T06:25:16;95632.84;;;22.73;60.03
69570;BME280;56781;42.292;23.146;2022-08-03T06:27:46;95617.22;;;22.73;58.79
69570;BME280;56781;42.292;23.146;2022-08-03T06:30:13;95634.50;;;22.85;59.18
69570;BME280;56781;42.292;23.146;2022-08-03T06:32:46;95623.53;;;22.81;60.67
69570;BME280;56781;42.292;23.146;2022-08-03T06:35:18;95632.31;;;22.97;60.40
69570;BME280;56781;42.292;23.146;2022-08-03T06:37:47;95636.25;;;23.04;59.92
69570;BME280;56781;42.292;23.146;2022-08-03T06:40:17;95626.06;;;23.00;59.82
69570;BME280;56781;42.292;23.146;2022-08-03T06:42:50;95620.69;;;23.08;59.22
69570;BME280;56781;42.292;23.146;2022-08-03T06:45:17;95629.75;;;23.19;59.68
69570;BME280;56781;42.292;23.146;2022-08-03T06:47:44;95617.63;;;23.20;59.43
69570;BME280;56781;42.292;23.146;2022-08-03T06:50:11;95631.88;;;23.43;59.05
69570;BME280;56781;42.292;23.146;2022-08-03T06:52:43;95632.94;;;23.87;57.89
69570;BME280;56781;42.292;23.146;2022-08-03T06:55:10;95597.38;;;23.91;55.74
69570;BME280;56781;42.292;23.146;2022-08-03T06:57:38;95616.97;;;24.00;57.07
69570;BME280;56781;42.292;23.146;2022-08-03T07:00:08;95587.69;;;24.07;56.07
69570;BME280;56781;42.292;23.146;2022-08-03T07:02:38;95619.78;;;24.21;56.64
69570;BME280;56781;42.292;23.146;2022-08-03T07:05:06;95626.94;;;24.58;55.60
69570;BME280;56781;42.292;23.146;2022-08-03T07:07:34;95565.09;;;24.32;56.10
69570;BME280;56781;42.292;23.146;2022-08-03T07:10:01;95590.97;;;24.63;54.41
69570;BME280;56781;42.292;23.146;2022-08-03T07:12:29;95622.28;;;24.76;53.40
69570;BME280;56781;42.292;23.146;2022-08-03T07:14:57;95562.03;;;24.59;54.46
69570;BME280;56781;42.292;23.146;2022-08-03T07:17:33;95569.47;;;24.80;53.18
69570;BME280;56781;42.292;23.146;2022-08-03T07:20:03;95560.47;;;25.08;54.41
69570;BME280;56781;42.292;23.146;2022-08-03T07:22:30;95595.72;;;25.38;52.73
69570;BME280;56781;42.292;23.146;2022-08-03T07:24:58;95590.19;;;25.49;51.04
69570;BME280;56781;42.292;23.146;2022-08-03T07:27:25;95616.75;;;25.84;51.70
69570;BME280;56781;42.292;23.146;2022-08-03T07:29:54;95599.44;;;26.08;52.13
69570;BME280;56781;42.292;23.146;2022-08-03T07:32:22;95561.13;;;25.87;51.15
69570;BME280;56781;42.292;23.146;2022-08-03T07:34:50;95580.59;;;26.11;51.06
69570;BME280;56781;42.292;23.146;2022-08-03T07:37:21;95592.25;;;26.36;51.13
69570;BME280;56781;42.292;23.146;2022-08-03T07:39:48;95579.63;;;26.49;48.87
69570;BME280;56781;42.292;23.146;2022-08-03T07:42:15;95555.84;;;26.25;51.81
69570;BME280;56781;42.292;23.146;2022-08-03T07:44:42;95569.84;;;26.45;51.92
69570;BME280;56781;42.292;23.146;2022-08-03T07:47:09;95593.78;;;27.04;49.74
69570;BME280;56781;42.292;23.146;2022-08-03T07:49:48;95576.97;;;26.94;49.70
69570;BME280;56781;42.292;23.146;2022-08-03T07:52:15;95561.69;;;26.93;49.47
69570;BME280;56781;42.292;23.146;2022-08-03T07:55:01;95572.44;;;27.22;46.16
69570;BME280;56781;42.292;23.146;2022-08-03T07:57:28;95561.88;;;27.21;48.11
69570;BME280;56781;42.292;23.146;2022-08-03T07:59:55;95563.25;;;27.39;49.09
69570;BME280;56781;42.292;23.146;2022-08-03T08:02:28;95536.19;;;27.34;48.03
69570;BME280;56781;42.292;23.146;2022-08-03T08:04:55;95562.66;;;27.59;46.53
69570;BME280;56781;42.292;23.146;2022-08-03T08:07:22;95596.38;;;28.04;47.11
69570;BME280;56781;42.292;23.146;2022-08-03T08:09:49;95577.00;;;27.77;46.91
69570;BME280;56781;42.292;23.146;2022-08-03T08:12:16;95575.84;;;28.09;46.48
69570;BME280;56781;42.292;23.146;2022-08-03T08:14:44;95560.53;;;28.08;45.42
69570;BME280;56781;42.292;23.146;2022-08-03T08:17:13;95574.22;;;28.12;46.22
69570;BME280;56781;42.292;23.146;2022-08-03T08:19:40;95571.31;;;28.26;46.22
69570;BME280;56781;42.292;23.146;2022-08-03T08:22:17;95547.19;;;28.34;43.49
69570;BME280;56781;42.292;23.146;2022-08-03T08:24:57;95560.81;;;28.48;45.31
69570;BME280;56781;42.292;23.146;2022-08-03T08:27:26;95538.00;;;28.47;45.47
69570;BME280;56781;42.292;23.146;2022-08-03T08:30:15;95558.44;;;28.73;43.83
69570;BME280;56781;42.292;23.146;2022-08-03T08:32:45;95525.91;;;28.65;44.81
69570;BME280;56781;42.292;23.146;2022-08-03T08:35:13;95553.44;;;28.92;45.11
69570;BME280;56781;42.292;23.146;2022-08-03T08:37:40;95556.16;;;29.19;44.93
69570;BME280;56781;42.292;23.146;2022-08-03T08:40:08;95552.47;;;29.02;44.04
69570;BME280;56781;42.292;23.146;2022-08-03T08:42:39;95524.06;;;28.58;44.24
69570;BME280;56781;42.292;23.146;2022-08-03T08:45:23;95522.31;;;28.68;44.60
69570;BME280;56781;42.292;23.146;2022-08-03T08:47:50;95542.94;;;28.83;44.52
69570;BME280;56781;42.292;23.146;2022-08-03T08:50:26;95529.81;;;28.67;45.47
69570;BME280;56781;42.292;23.146;2022-08-03T08:52:54;95535.38;;;28.87;44.46
69570;BME280;56781;42.292;23.146;2022-08-03T08:55:22;95539.94;;;28.98;43.39
69570;BME280;56781;42.292;23.146;2022-08-03T08:57:56;95523.72;;;29.03;45.09
69570;BME280;56781;42.292;23.146;2022-08-03T09:00:25;95538.09;;;29.38;43.20
69570;BME280;56781;42.292;23.146;2022-08-03T09:02:52;95533.78;;;29.37;44.35
69570;BME280;56781;42.292;23.146;2022-08-03T09:05:19;95541.78;;;29.51;41.83
69570;BME280;56781;42.292;23.146;2022-08-03T09:08:07;95554.91;;;29.87;42.17
69570;BME280;56781;42.292;23.146;2022-08-03T09:10:34;95539.00;;;29.95;41.97
69570;BME280;56781;42.292;23.146;2022-08-03T09:13:01;95537.78;;;29.96;39.14
69570;BME280;56781;42.292;23.146;2022-08-03T09:15:31;95520.72;;;30.01;40.21
69570;BME280;56781;42.292;23.146;2022-08-03T09:18:02;95535.31;;;29.81;42.45
69570;BME280;56781;42.292;23.146;2022-08-03T09:20:33;95516.75;;;29.62;40.70
69570;BME280;56781;42.292;23.146;2022-08-03T09:23:08;95535.19;;;29.89;40.78
69570;BME280;56781;42.292;23.146;2022-08-03T09:25:58;95572.75;;;30.02;39.80
69570;BME280;56781;42.292;23.146;2022-08-03T09:28:33;95529.94;;;29.31;39.96
69570;BME280;56781;42.292;23.146;2022-08-03T09:31:35;95534.13;;;28.68;43.74
69570;BME280;56781;42.292;23.146;2022-08-03T09:34:08;95534.97;;;28.65;44.46
69570;BME280;56781;42.292;23.146;2022-08-03T09:36:39;95541.38;;;28.59;43.55
69570;BME280;56781;42.292;23.146;2022-08-03T09:39:14;95526.25;;;27.78;43.95
69570;BME280;56781;42.292;23.146;2022-08-03T09:41:44;95534.75;;;27.23;45.87
69570;BME280;56781;42.292;23.146;2022-08-03T09:44:12;95541.50;;;27.11;47.58
69570;BME280;56781;42.292;23.146;2022-08-03T09:46:53;95555.31;;;27.00;47.96
69570;BME280;56781;42.292;23.146;2022-08-03T09:49:22;95546.91;;;26.73;47.93
69570;BME280;56781;42.292;23.146;2022-08-03T09:51:51;95544.72;;;26.53;47.17
69570;BME280;56781;42.292;23.146;2022-08-03T09:54:40;95569.38;;;26.61;48.22
69570;BME280;56781;42.292;23.146;2022-08-03T09:57:10;95561.31;;;26.28;48.57
69570;BME280;56781;42.292;23.146;2022-08-03T09:59:46;95539.88;;;26.02;51.52
69570;BME280;56781;42.292;23.146;2022-08-03T10:02:22;95547.00;;;25.92;50.64
69570;BME280;56781;42.292;23.146;2022-08-03T10:04:51;95520.06;;;25.58;55.02
69570;BME280;56781;42.292;23.146;2022-08-03T10:07:22;95561.16;;;25.62;55.74
69570;BME280;56781;42.292;23.146;2022-08-03T10:09:59;95532.28;;;25.36;56.16
69570;BME280;56781;42.292;23.146;2022-08-03T10:12:46;95519.78;;;25.06;59.56
69570;BME280;56781;42.292;23.146;2022-08-03T10:15:14;95560.09;;;25.09;58.16
69570;BME280;56781;42.292;23.146;2022-08-03T10:18:02;95528.81;;;24.82;59.70
69570;BME280;56781;42.292;23.146;2022-08-03T10:20:32;95508.47;;;24.61;63.70
69570;BME280;56781;42.292;23.146;2022-08-03T10:23:03;95534.25;;;24.53;63.19
69570;BME280;56781;42.292;23.146;2022-08-03T10:25:32;95494.72;;;24.29;63.50
69570;BME280;56781;42.292;23.146;2022-08-03T10:28:01;95522.50;;;24.38;65.62
69570;BME280;56781;42.292;23.146;2022-08-03T10:30:32;95518.19;;;24.37;65.39
69570;BME280;56781;42.292;23.146;2022-08-03T10:33:08;95552.63;;;24.56;72.80
69570;BME280;56781;42.292;23.146;2022-08-03T10:35:59;95520.53;;;24.31;70.76
69570;BME280;56781;42.292;23.146;2022-08-03T10:38:43;95531.91;;;24.48;72.04
69570;BME280;56781;42.292;23.146;2022-08-03T10:41:14;95544.84;;;24.65;71.45
69570;BME280;56781;42.292;23.146;2022-08-03T10:43:53;95515.91;;;24.57;68.82
69570;BME280;56781;42.292;23.146;2022-08-03T10:46:23;95558.91;;;24.96;71.69
69570;BME280;56781;42.292;23.146;2022-08-03T10:48:52;95509.63;;;24.82;73.46
69570;BME280;56781;42.292;23.146;2022-08-03T10:51:20;95511.19;;;24.86;71.97
69570;BME280;56781;42.292;23.146;2022-08-03T10:53:49;95520.19;;;25.01;71.95
69570;BME280;56781;42.292;23.146;2022-08-03T11:02:13;95526.00;;;25.39;69.65
69570;BME280;56781;42.292;23.146;2022-08-03T11:04:41;95511.13;;;25.40;69.09
69570;BME280;56781;42.292;23.146;2022-08-03T11:07:22;95495.44;;;25.48;67.40
69570;BME280;56781;42.292;23.146;2022-08-03T11:09:52;95510.25;;;25.68;66.87
69570;BME280;56781;42.292;23.146;2022-08-03T11:12:27;95477.38;;;25.57;62.53
69570;BME280;56781;42.292;23.146;2022-08-03T11:15:04;95505.47;;;25.90;61.81
69570;BME280;56781;42.292;23.146;2022-08-03T11:17:33;95488.22;;;25.86;57.32
69570;BME280;56781;42.292;23.146;2022-08-03T11:20:51;95525.63;;;26.28;55.42
69570;BME280;56781;42.292;23.146;2022-08-03T11:23:57;95450.16;;;25.99;58.26
69570;BME280;56781;42.292;23.146;2022-08-03T11:26:31;95489.16;;;26.31;55.82
69570;BME280;56781;42.292;23.146;2022-08-03T11:29:26;95510.53;;;26.62;54.51
69570;BME280;56781;42.292;23.146;2022-08-03T11:31:55;95484.31;;;26.53;53.12
69570;BME280;56781;42.292;23.146;2022-08-03T11:34:22;95488.75;;;26.82;51.87
69570;BME280;56781;42.292;23.146;2022-08-03T11:37:22;95493.31;;;27.40;49.45
69570;BME280;56781;42.292;23.146;2022-08-03T11:39:56;95464.00;;;27.61;47.61
69570;BME280;56781;42.292;23.146;2022-08-03T11:44:54;95441.38;;;28.08;45.13
69570;BME280;56781;42.292;23.146;2022-08-03T11:47:26;95463.97;;;27.95;45.76
69570;BME280;56781;42.292;23.146;2022-08-03T11:49:55;95457.94;;;27.73;46.07
69570;BME280;56781;42.292;23.146;2022-08-03T11:52:25;95428.78;;;27.49;46.57
69570;BME280;56781;42.292;23.146;2022-08-03T11:54:54;95423.78;;;27.40;44.69
69570;BME280;56781;42.292;23.146;2022-08-03T11:57:30;95476.50;;;27.66;46.13
69570;BME280;56781;42.292;23.146;2022-08-03T12:00:28;95421.81;;;27.40;42.38
69570;BME280;56781;42.292;23.146;2022-08-03T12:02:58;95434.59;;;27.89;42.55
69570;BME280;56781;42.292;23.146;2022-08-03T12:05:41;95448.28;;;28.19;45.17
69570;BME280;56781;42.292;23.146;2022-08-03T12:10:55;95413.38;;;28.40;37.45
69570;BME280;56781;42.292;23.146;2022-08-03T12:13:23;95441.03;;;28.80;40.23
69570;BME280;56781;42.292;23.146;2022-08-03T12:16:24;95418.34;;;28.72;39.88
69570;BME280;56781;42.292;23.146;2022-08-03T12:18:59;95430.63;;;28.44;38.96
69570;BME280;56781;42.292;23.146;2022-08-03T12:21:27;95420.59;;;28.30;41.30
69570;BME280;56781;42.292;23.146;2022-08-03T12:24:00;95405.56;;;28.35;41.92
69570;BME280;56781;42.292;23.146;2022-08-03T12:26:28;95426.19;;;28.73;43.41
69570;BME280;56781;42.292;23.146;2022-08-03T12:28:55;95402.69;;;28.45;40.61
69570;BME280;56781;42.292;23.146;2022-08-03T12:31:23;95432.97;;;28.45;41.19
69570;BME280;56781;42.292;23.146;2022-08-03T12:34:02;95435.81;;;28.11;42.90
69570;BME280;56781;42.292;23.146;2022-08-03T12:36:32;95429.09;;;27.58;43.99
69570;BME280;56781;42.292;23.146;2022-08-03T12:39:06;95454.25;;;27.22;45.60
69570;BME280;56781;42.292;23.146;2022-08-03T12:41:38;95404.69;;;26.46;46.32
69570;BME280;56781;42.292;23.146;2022-08-03T12:44:07;95450.75;;;26.28;47.88
69570;BME280;56781;42.292;23.146;2022-08-03T12:46:40;95480.38;;;25.95;52.09
69570;BME280;56781;42.292;23.146;2022-08-03T12:49:15;95439.94;;;25.18;55.51
69570;BME280;56781;42.292;23.146;2022-08-03T12:54:16;95448.19;;;24.86;58.20
69570;BME280;56781;42.292;23.146;2022-08-03T12:57:01;95479.13;;;24.65;59.30
69570;BME280;56781;42.292;23.146;2022-08-03T12:59:33;95528.41;;;24.72;60.17
69570;BME280;56781;42.292;23.146;2022-08-03T13:02:23;95532.66;;;24.41;68.05
69570;BME280;56781;42.292;23.146;2022-08-03T13:04:53;95476.72;;;23.05;70.18
69570;BME280;56781;42.292;23.146;2022-08-03T13:07:21;95478.00;;;22.18;77.59
69570;BME280;56781;42.292;23.146;2022-08-03T13:09:54;95545.69;;;22.12;81.97
69570;BME280;56781;42.292;23.146;2022-08-03T13:12:27;95508.00;;;21.51;84.12
69570;BME280;56781;42.292;23.146;2022-08-03T13:14:57;95551.13;;;21.45;83.02
69570;BME280;56781;42.292;23.146;2022-08-03T13:17:26;95522.97;;;21.07;82.74
69570;BME280;56781;42.292;23.146;2022-08-03T13:19:53;95507.47;;;20.85;83.47
69570;BME280;56781;42.292;23.146;2022-08-03T13:22:22;95518.25;;;20.77;86.37
69570;BME280;56781;42.292;23.146;2022-08-03T13:24:51;95511.00;;;20.62;85.77
69570;BME280;56781;42.292;23.146;2022-08-03T13:27:21;95524.50;;;20.35;88.69
69570;BME280;56781;42.292;23.146;2022-08-03T13:30:09;95569.81;;;20.05;90.88
69570;BME280;56781;42.292;23.146;2022-08-03T13:32:36;95522.66;;;19.74;87.24
69570;BME280;56781;42.292;23.146;2022-08-03T13:35:05;95526.38;;;19.66;90.35
69570;BME280;56781;42.292;23.146;2022-08-03T13:37:32;95493.16;;;19.37;93.47
69570;BME280;56781;42.292;23.146;2022-08-03T13:40:01;95525.91;;;19.64;95.80
69570;BME280;56781;42.292;23.146;2022-08-03T13:42:32;95528.84;;;19.75;96.69
69570;BME280;56781;42.292;23.146;2022-08-03T13:45:00;95527.63;;;19.91;92.96
69570;BME280;56781;42.292;23.146;2022-08-03T13:47:27;95471.38;;;19.73;93.78
69570;BME280;56781;42.292;23.146;2022-08-03T13:49:55;95468.44;;;19.62;92.16